Fort Bliss, Texas
Current Conditions -  °F | °C
As of 11:58 PM on Tuesday 21 Oct 2014 (Local Time) from KBIF Reporting Station
Clear Clear  
Wind Chill: 61°   Ceiling: Unl
Heat Index: 61°   Visibility: 9mi
Dew Point: 55°   Wind: 6mph
Humidity: 80%   Direction: 100°E
Pressure: 30.06"   Gusts: NA
Location:  31.8335°N, 106.423°W
Report Text: KBIF 220558Z AUTO 10005KT 9SM CLR 16/13 A3006 RMK AO2 SLP132 T01620127 10208 20145 50006
Loading
Personal Weather Stations






























Interactive Weather Map New forecast layout! Learn more

10-Day Weather Forecast

Advertisements
Track Severe Weather on mobile